Etusivu
METAR-TAF:

METAR-TAF

Lentoasemat :

Fairmont Municipal Airport

Fairmont, Minnesota, Yhdysvallat

Leveyspiiri: 43-39N, Pituuspiiri: 094-25W, korkeus merenpinnasta: 354 m

Tämänhetkinen sää

Tämä raportti tehtiin 1 tunti ja 48 minuuttia sitten, kello 16.56 UTC
Tuuli 15 kn etelästä
Lämpötila -11°C
Kosteus 66%
Ilmanpaine 1030 hPa
Näkyvyys: 16.1 km
selkeää

METAR: KFRM 121656Z AUTO 19015KT 10SM CLR M11/M16 A3043 RMK AO2 SLP337 T11061161 FZRANO TSNO

Aika: 12:44 (18:44 UTC)


TAF: puuttuu

Säähavainnot ja -ennusteet yli 4000 lentoasemalta (METAR- ja TAF-raportit).

Käytössä olevat sääasemat on merkitty karttaan keltaisilla ja punaisilla pisteillä.

Aseta hiiri pisteen päälle nähdäksesi sääaseman nimen.

Klikkaa sitten nähdäksesi säähavainnot ja -ennusteet.

Kartan vaihtaminen: klikkaa mustalla rastilla varustettuja vihreitä pisteitä, niin voit zoomata sisään; viivalla varustettua vihreää pistettä, niin voit zoomata ulos tai vihreitä nuolia, niin pääset viereisille kartoille.


METAR-TAF: